Flushing, Michigan
Current Conditions -  °F | °C
As of 7:53 PM on Saturday 25 Oct 2014 (Local Time) from KFNT Reporting Station
Clear Clear  
Wind Chill: 57°   Ceiling: Unl
Heat Index: 57°   Visibility: 10mi
Dew Point: 34°   Wind: 12mph
Humidity: 42%   Direction: 290°WNW
Pressure: 29.79"   Gusts: NA
Location:  43.06°N, 83.85°W
Report Text: KFNT 252353Z 29010KT 10SM CLR 14/01 A2979 RMK AO2 SLP087 T01390011 10206 20139 51023
Loading
Personal Weather Stations






























Interactive Weather Map
Tropical Storm Tracking
New forecast layout! Learn more

10-Day Weather Forecast

Advertisements
Track Severe Weather on mobile